Time;durP1;ratioP1;P1;durP2;ratioP2;P2;SDS_P1;SDS_P2;PMS_P1;PMS_P2;Temp;Humidity;BMP_temperature;BMP_pressure;BME280_temperature;BME280_humidity;BME280_pressure;Samples;Min_cycle;Max_cycle;Signal;HPM_P1;HPM_P2
2021/08/14 00:00:02;;;;;;;15.3;7.9;;;;;;;18.1;57.8;101910;;;;
2021/08/14 00:02:02;;;;;;;14.7;8.2;;;;;;;18.4;56.4;101910;;;;
2021/08/14 00:04:02;;;;;;;14.7;8.2;;;;;;;18.2;56.6;101910;;;;
2021/08/14 00:16:02;;;;;;;14.7;8.2;;;;;;;18.1;57.5;101900;;;;
2021/08/14 00:20:02;;;;;;;14.7;8.2;;;;;;;18.0;57.0;101900;;;;
2021/08/14 00:24:02;;;;;;;14.6;8.8;;;;;;;17.9;57.1;101910;;;;
2021/08/14 00:26:02;;;;;;;14.6;8.8;;;;;;;18.0;57.0;101910;;;;
2021/08/14 00:30:02;;;;;;;14.6;8.8;;;;;;;17.9;57.4;101900;;;;
2021/08/14 00:32:02;;;;;;;14.6;8.8;;;;;;;17.8;57.5;101900;;;;
2021/08/14 00:34:02;;;;;;;14.6;8.8;;;;;;;17.7;59.4;101900;;;;
2021/08/14 00:38:02;;;;;;;14.6;8.8;;;;;;;17.8;57.9;101890;;;;
2021/08/14 00:42:02;;;;;;;15.1;9.4;;;;;;;17.9;57.2;101890;;;;
2021/08/14 00:44:02;;;;;;;15.1;9.4;;;;;;;17.8;57.3;101890;;;;
2021/08/14 00:46:07;;;;;;;15.1;9.4;;;;;;;17.5;59.1;101900;;;;
2021/08/14 00:50:02;;;;;;;15.1;9.4;;;;;;;17.7;57.4;101890;;;;
2021/08/14 00:52:02;;;;;;;15.1;9.4;;;;;;;17.6;58.3;101890;;;;
2021/08/14 00:54:02;;;;;;;15.1;9.4;;;;;;;17.5;60.5;101890;;;;
2021/08/14 00:56:02;;;;;;;15.1;9.4;;;;;;;17.6;58.1;101890;;;;
2021/08/14 00:58:02;;;;;;;15.1;9.4;;;;;;;17.5;58.8;101890;;;;
2021/08/14 01:02:02;;;;;;;15.3;9.1;;;;;;;17.7;57.6;101900;;;;
2021/08/14 01:04:02;;;;;;;15.3;9.1;;;;;;;17.5;59.5;101900;;;;
2021/08/14 01:06:02;;;;;;;15.3;9.1;;;;;;;17.4;60.3;101900;;;;
2021/08/14 01:08:02;;;;;;;15.3;9.1;;;;;;;17.5;58.6;101900;;;;
2021/08/14 01:10:02;;;;;;;15.3;9.1;;;;;;;17.2;60.3;101900;;;;
2021/08/14 01:12:02;;;;;;;15.3;9.1;;;;;;;17.3;60.4;101900;;;;
2021/08/14 01:14:02;;;;;;;15.3;9.1;;;;;;;17.2;59.7;101900;;;;
2021/08/14 01:16:02;;;;;;;15.3;9.1;;;;;;;17.3;59.0;101900;;;;
2021/08/14 01:18:02;;;;;;;15.3;9.1;;;;;;;17.1;60.7;101900;;;;
2021/08/14 01:20:02;;;;;;;15.3;9.1;;;;;;;17.2;59.0;101910;;;;
2021/08/14 01:22:03;;;;;;;15.2;9.5;;;;;;;17.5;58.5;101900;;;;
2021/08/14 01:24:02;;;;;;;15.2;9.5;;;;;;;17.3;60.3;101900;;;;
2021/08/14 01:26:02;;;;;;;15.2;9.5;;;;;;;17.2;60.8;101900;;;;
2021/08/14 01:30:02;;;;;;;15.2;9.5;;;;;;;17.3;58.7;101900;;;;
2021/08/14 01:40:02;;;;;;;15.2;9.5;;;;;;;17.2;59.2;101890;;;;
2021/08/14 01:42:02;;;;;;;12.8;9.2;;;;;;;17.3;58.7;101880;;;;
2021/08/14 01:44:02;;;;;;;12.8;9.2;;;;;;;17.1;60.9;101880;;;;
2021/08/14 01:48:02;;;;;;;12.8;9.2;;;;;;;17.0;60.0;101880;;;;
2021/08/14 01:50:02;;;;;;;12.8;9.2;;;;;;;16.9;60.3;101880;;;;
2021/08/14 01:54:04;;;;;;;12.8;9.2;;;;;;;17.0;60.8;101880;;;;
2021/08/14 01:56:02;;;;;;;12.8;9.2;;;;;;;16.9;61.5;101880;;;;
2021/08/14 01:58:02;;;;;;;12.8;9.2;;;;;;;16.8;61.7;101880;;;;
2021/08/14 02:00:02;;;;;;;12.8;9.2;;;;;;;16.9;59.6;101870;;;;
2021/08/14 02:02:02;;;;;;;14.9;10.0;;;;;;;17.1;58.6;101870;;;;
2021/08/14 02:04:02;;;;;;;14.9;10.0;;;;;;;17.0;59.8;101860;;;;
2021/08/14 02:08:02;;;;;;;14.9;10.0;;;;;;;16.9;60.5;101860;;;;
2021/08/14 02:14:02;;;;;;;14.9;10.0;;;;;;;16.7;62.6;101860;;;;
2021/08/14 02:18:02;;;;;;;14.9;10.0;;;;;;;16.8;62.2;101860;;;;
2021/08/14 02:22:02;;;;;;;15.4;9.7;;;;;;;16.9;61.8;101860;;;;
2021/08/14 02:26:02;;;;;;;15.4;9.7;;;;;;;16.8;61.4;101850;;;;
2021/08/14 02:40:02;;;;;;;15.4;9.7;;;;;;;16.7;62.7;101840;;;;
2021/08/14 02:42:02;;;;;;;18.2;10.0;;;;;;;16.8;61.8;101840;;;;
2021/08/14 02:44:02;;;;;;;18.2;10.0;;;;;;;16.7;61.2;101840;;;;
2021/08/14 02:46:02;;;;;;;18.2;10.0;;;;;;;16.6;62.4;101840;;;;
2021/08/14 02:48:02;;;;;;;18.2;10.0;;;;;;;16.7;61.5;101840;;;;
2021/08/14 02:50:02;;;;;;;18.2;10.0;;;;;;;16.6;63.2;101840;;;;
2021/08/14 02:52:02;;;;;;;18.2;10.0;;;;;;;16.5;63.1;101840;;;;
2021/08/14 02:56:02;;;;;;;18.2;10.0;;;;;;;16.4;63.8;101840;;;;
2021/08/14 02:58:02;;;;;;;18.2;10.0;;;;;;;16.5;63.4;101840;;;;
2021/08/14 03:00:02;;;;;;;18.2;10.0;;;;;;;16.6;62.8;101840;;;;
2021/08/14 03:02:02;;;;;;;12.7;9.7;;;;;;;16.7;61.1;101840;;;;
2021/08/14 03:04:02;;;;;;;12.7;9.7;;;;;;;16.6;62.5;101840;;;;
2021/08/14 03:10:02;;;;;;;12.7;9.7;;;;;;;16.5;63.8;101840;;;;
2021/08/14 03:12:02;;;;;;;12.7;9.7;;;;;;;16.4;63.7;101840;;;;
2021/08/14 03:18:02;;;;;;;12.7;9.7;;;;;;;16.5;62.7;101830;;;;
2021/08/14 03:20:02;;;;;;;12.7;9.7;;;;;;;16.4;64.3;101840;;;;
2021/08/14 03:24:02;;;;;;;15.3;10.4;;;;;;;16.3;63.4;101830;;;;
2021/08/14 03:28:02;;;;;;;15.3;10.4;;;;;;;16.4;62.2;101830;;;;
2021/08/14 03:30:02;;;;;;;15.3;10.4;;;;;;;16.2;63.9;101830;;;;
2021/08/14 03:34:02;;;;;;;15.3;10.4;;;;;;;16.3;63.0;101830;;;;
2021/08/14 03:36:02;;;;;;;15.3;10.4;;;;;;;16.2;64.0;101830;;;;
2021/08/14 03:38:02;;;;;;;15.3;10.4;;;;;;;16.1;64.5;101820;;;;
2021/08/14 03:42:02;;;;;;;17.3;11.1;;;;;;;16.3;63.8;101820;;;;
2021/08/14 03:44:02;;;;;;;17.3;11.1;;;;;;;16.2;63.9;101820;;;;
2021/08/14 03:48:02;;;;;;;17.3;11.1;;;;;;;16.1;63.1;101820;;;;
2021/08/14 03:52:02;;;;;;;17.3;11.1;;;;;;;16.0;65.3;101820;;;;
2021/08/14 03:56:02;;;;;;;17.3;11.1;;;;;;;15.9;63.3;101820;;;;
2021/08/14 03:58:02;;;;;;;17.3;11.1;;;;;;;15.8;64.2;101830;;;;
2021/08/14 04:00:03;;;;;;;17.3;11.1;;;;;;;15.9;65.2;101840;;;;
2021/08/14 04:02:02;;;;;;;14.9;10.7;;;;;;;16.0;64.2;101840;;;;
2021/08/14 04:04:02;;;;;;;14.9;10.7;;;;;;;15.9;64.6;101840;;;;
2021/08/14 04:12:02;;;;;;;14.9;10.7;;;;;;;15.8;65.2;101840;;;;
2021/08/14 04:16:02;;;;;;;14.9;10.7;;;;;;;15.9;63.0;101840;;;;
2021/08/14 04:20:02;;;;;;;14.9;10.7;;;;;;;15.8;63.7;101830;;;;
2021/08/14 04:24:02;;;;;;;17.9;10.6;;;;;;;15.9;63.4;101830;;;;
2021/08/14 04:26:02;;;;;;;17.9;10.6;;;;;;;15.6;64.5;101830;;;;
2021/08/14 04:30:02;;;;;;;17.9;10.6;;;;;;;15.8;63.9;101840;;;;
2021/08/14 04:32:02;;;;;;;17.9;10.6;;;;;;;15.7;64.4;101840;;;;
2021/08/14 04:34:02;;;;;;;17.9;10.6;;;;;;;15.6;64.7;101840;;;;
2021/08/14 04:42:02;;;;;;;14.0;9.7;;;;;;;15.7;64.8;101830;;;;
2021/08/14 04:44:02;;;;;;;14.0;9.7;;;;;;;15.6;63.4;101830;;;;
2021/08/14 04:52:02;;;;;;;14.0;9.7;;;;;;;15.5;64.1;101830;;;;
2021/08/14 04:56:02;;;;;;;14.0;9.7;;;;;;;15.6;64.5;101830;;;;
2021/08/14 04:58:02;;;;;;;14.0;9.7;;;;;;;15.7;62.9;101830;;;;
2021/08/14 05:00:02;;;;;;;14.0;9.7;;;;;;;15.6;64.0;101830;;;;
2021/08/14 05:02:03;;;;;;;15.9;9.7;;;;;;;15.8;63.3;101830;;;;
2021/08/14 05:04:02;;;;;;;15.9;9.7;;;;;;;15.6;64.4;101820;;;;
2021/08/14 05:08:02;;;;;;;15.9;9.7;;;;;;;15.5;65.1;101820;;;;
2021/08/14 05:12:02;;;;;;;15.9;9.7;;;;;;;15.4;64.7;101820;;;;
2021/08/14 05:16:02;;;;;;;15.9;9.7;;;;;;;15.5;63.8;101830;;;;
2021/08/14 05:18:02;;;;;;;15.9;9.7;;;;;;;15.6;63.9;101830;;;;
2021/08/14 05:20:02;;;;;;;15.9;9.7;;;;;;;15.7;63.0;101830;;;;
2021/08/14 05:24:02;;;;;;;16.9;11.2;;;;;;;15.6;64.5;101830;;;;
2021/08/14 05:28:02;;;;;;;16.9;11.2;;;;;;;15.7;63.8;101840;;;;
2021/08/14 05:30:02;;;;;;;16.9;11.2;;;;;;;15.6;65.0;101840;;;;
2021/08/14 05:32:02;;;;;;;16.9;11.2;;;;;;;15.7;64.9;101830;;;;
2021/08/14 05:34:02;;;;;;;16.9;11.2;;;;;;;15.8;63.5;101830;;;;
2021/08/14 05:36:02;;;;;;;16.9;11.2;;;;;;;15.7;63.7;101830;;;;
2021/08/14 05:38:02;;;;;;;16.9;11.2;;;;;;;15.8;64.3;101830;;;;
2021/08/14 05:46:02;;;;;;;14.7;10.0;;;;;;;15.9;64.2;101820;;;;
2021/08/14 05:52:04;;;;;;;14.7;10.0;;;;;;;15.8;65.6;101820;;;;
2021/08/14 06:00:02;;;;;;;14.7;10.0;;;;;;;15.9;64.1;101830;;;;
2021/08/14 06:02:02;;;;;;;16.4;10.2;;;;;;;16.1;64.0;101830;;;;
2021/08/14 06:06:02;;;;;;;16.4;10.2;;;;;;;16.0;65.1;101830;;;;
2021/08/14 06:08:02;;;;;;;16.4;10.2;;;;;;;16.1;64.7;101830;;;;
2021/08/14 06:12:02;;;;;;;16.4;10.2;;;;;;;16.2;65.4;101830;;;;
2021/08/14 06:20:02;;;;;;;16.4;10.2;;;;;;;16.3;64.7;101830;;;;
2021/08/14 06:22:02;;;;;;;15.6;9.3;;;;;;;16.4;64.2;101840;;;;
2021/08/14 06:24:02;;;;;;;15.6;9.3;;;;;;;16.5;64.7;101840;;;;
2021/08/14 06:28:02;;;;;;;15.6;9.3;;;;;;;16.6;64.8;101840;;;;
2021/08/14 06:32:02;;;;;;;15.6;9.3;;;;;;;16.7;63.1;101830;;;;
2021/08/14 06:38:02;;;;;;;15.6;9.3;;;;;;;16.8;63.6;101830;;;;
2021/08/14 06:40:02;;;;;;;15.6;9.3;;;;;;;16.9;63.7;101830;;;;
2021/08/14 06:42:02;;;;;;;15.3;9.4;;;;;;;16.8;63.3;101840;;;;
2021/08/14 06:44:02;;;;;;;15.3;9.4;;;;;;;16.9;64.0;101840;;;;
2021/08/14 06:50:02;;;;;;;15.3;9.4;;;;;;;17.0;64.6;101840;;;;
2021/08/14 06:54:02;;;;;;;15.3;9.4;;;;;;;17.1;63.7;101840;;;;
2021/08/14 06:58:02;;;;;;;15.3;9.4;;;;;;;17.2;64.6;101840;;;;
2021/08/14 07:00:03;;;;;;;15.3;9.4;;;;;;;17.3;64.2;101830;;;;
2021/08/14 07:02:02;;;;;;;17.4;9.5;;;;;;;17.4;63.8;101830;;;;
2021/08/14 07:04:02;;;;;;;17.4;9.5;;;;;;;17.5;63.2;101830;;;;
2021/08/14 07:12:02;;;;;;;17.4;9.5;;;;;;;17.7;63.8;101820;;;;
2021/08/14 07:14:02;;;;;;;17.4;9.5;;;;;;;17.6;63.8;101820;;;;
2021/08/14 07:16:02;;;;;;;17.4;9.5;;;;;;;17.8;63.7;101830;;;;
2021/08/14 07:24:02;;;;;;;18.7;9.6;;;;;;;18.0;63.7;101830;;;;
2021/08/14 07:30:02;;;;;;;18.7;9.6;;;;;;;18.1;63.9;101820;;;;
2021/08/14 07:32:02;;;;;;;18.7;9.6;;;;;;;18.2;63.7;101820;;;;
2021/08/14 07:34:02;;;;;;;18.7;9.6;;;;;;;18.1;63.1;101820;;;;
2021/08/14 07:38:02;;;;;;;18.7;9.6;;;;;;;18.2;63.9;101820;;;;
2021/08/14 07:42:02;;;;;;;19.6;10.8;;;;;;;18.3;63.1;101820;;;;
2021/08/14 07:44:12;;;;;;;19.6;10.8;;;;;;;18.4;63.5;101820;;;;
2021/08/14 07:46:02;;;;;;;19.6;10.8;;;;;;;18.3;63.8;101830;;;;
2021/08/14 07:48:02;;;;;;;19.6;10.8;;;;;;;18.5;64.4;101830;;;;
2021/08/14 07:50:02;;;;;;;19.6;10.8;;;;;;;18.7;63.2;101830;;;;
2021/08/14 07:56:02;;;;;;;19.6;10.8;;;;;;;18.8;63.5;101830;;;;
2021/08/14 07:58:02;;;;;;;19.6;10.8;;;;;;;18.9;62.7;101830;;;;
2021/08/14 08:00:02;;;;;;;19.6;10.8;;;;;;;19.1;62.3;101820;;;;
2021/08/14 08:02:02;;;;;;;20.6;11.5;;;;;;;18.9;62.9;101830;;;;
2021/08/14 08:04:02;;;;;;;20.6;11.5;;;;;;;19.0;62.8;101820;;;;
2021/08/14 08:06:02;;;;;;;20.6;11.5;;;;;;;19.1;62.7;101820;;;;
2021/08/14 08:10:03;;;;;;;20.6;11.5;;;;;;;19.2;62.0;101830;;;;
2021/08/14 08:12:02;;;;;;;20.6;11.5;;;;;;;19.3;62.1;101820;;;;
2021/08/14 08:14:05;;;;;;;20.6;11.5;;;;;;;19.5;61.9;101820;;;;
2021/08/14 08:22:02;;;;;;;19.8;10.6;;;;;;;19.6;61.5;101820;;;;
2021/08/14 08:24:02;;;;;;;19.8;10.6;;;;;;;19.7;60.4;101820;;;;
2021/08/14 08:26:02;;;;;;;19.8;10.6;;;;;;;19.8;61.1;101820;;;;
2021/08/14 08:28:03;;;;;;;19.8;10.6;;;;;;;19.9;60.4;101820;;;;
2021/08/14 08:32:02;;;;;;;19.8;10.6;;;;;;;20.0;59.6;101820;;;;
2021/08/14 08:36:02;;;;;;;19.8;10.6;;;;;;;20.1;59.4;101820;;;;
2021/08/14 08:38:02;;;;;;;19.8;10.6;;;;;;;20.2;59.1;101820;;;;
2021/08/14 08:40:02;;;;;;;19.8;10.6;;;;;;;20.0;58.8;101820;;;;
2021/08/14 08:42:02;;;;;;;17.5;8.0;;;;;;;20.2;59.1;101820;;;;
2021/08/14 08:48:02;;;;;;;17.5;8.0;;;;;;;20.3;58.4;101810;;;;
2021/08/14 08:52:02;;;;;;;17.5;8.0;;;;;;;20.4;58.9;101810;;;;
2021/08/14 08:54:02;;;;;;;17.5;8.0;;;;;;;20.5;58.0;101810;;;;
2021/08/14 08:58:02;;;;;;;17.5;8.0;;;;;;;20.6;57.6;101810;;;;
2021/08/14 09:02:02;;;;;;;18.8;8.8;;;;;;;20.7;57.2;101800;;;;
2021/08/14 09:06:02;;;;;;;18.8;8.8;;;;;;;20.8;56.7;101800;;;;
2021/08/14 09:08:02;;;;;;;18.8;8.8;;;;;;;20.9;56.9;101800;;;;
2021/08/14 09:12:03;;;;;;;18.8;8.8;;;;;;;21.0;56.9;101790;;;;
2021/08/14 09:14:02;;;;;;;18.8;8.8;;;;;;;21.1;56.7;101790;;;;
2021/08/14 09:18:02;;;;;;;18.8;8.8;;;;;;;21.3;56.8;101800;;;;
2021/08/14 09:22:02;;;;;;;16.9;10.8;;;;;;;21.2;56.2;101810;;;;
2021/08/14 09:24:05;;;;;;;16.9;10.8;;;;;;;20.9;55.9;101800;;;;
2021/08/14 09:26:06;;;;;;;16.9;10.8;;;;;;;21.0;55.1;101810;;;;
2021/08/14 09:30:02;;;;;;;16.9;10.8;;;;;;;21.1;54.9;101810;;;;
2021/08/14 09:32:02;;;;;;;16.9;10.8;;;;;;;21.3;55.4;101810;;;;
2021/08/14 09:40:02;;;;;;;16.9;10.8;;;;;;;21.4;55.9;101800;;;;
2021/08/14 09:42:02;;;;;;;26.1;21.2;;;;;;;21.5;56.3;101810;;;;
2021/08/14 09:44:02;;;;;;;26.1;21.2;;;;;;;21.6;55.7;101800;;;;
2021/08/14 09:46:02;;;;;;;26.1;21.2;;;;;;;21.3;56.1;101810;;;;
2021/08/14 09:48:02;;;;;;;26.1;21.2;;;;;;;21.5;56.3;101800;;;;
2021/08/14 09:52:02;;;;;;;26.1;21.2;;;;;;;21.7;55.3;101810;;;;
2021/08/14 09:54:02;;;;;;;26.1;21.2;;;;;;;21.6;55.9;101810;;;;
2021/08/14 09:56:02;;;;;;;26.1;21.2;;;;;;;21.7;56.1;101810;;;;
2021/08/14 10:00:02;;;;;;;26.1;21.2;;;;;;;21.5;55.0;101810;;;;
2021/08/14 10:02:02;;;;;;;27.3;21.6;;;;;;;21.8;54.9;101810;;;;
2021/08/14 10:06:02;;;;;;;27.3;21.6;;;;;;;21.7;54.8;101800;;;;
2021/08/14 10:10:02;;;;;;;27.3;21.6;;;;;;;21.9;55.3;101810;;;;
2021/08/14 10:16:02;;;;;;;27.3;21.6;;;;;;;22.0;54.5;101810;;;;
2021/08/14 10:18:02;;;;;;;27.3;21.6;;;;;;;22.1;54.3;101810;;;;
2021/08/14 10:20:02;;;;;;;27.3;21.6;;;;;;;22.0;55.2;101810;;;;
2021/08/14 10:22:02;;;;;;;34.3;27.7;;;;;;;22.2;55.4;101810;;;;
2021/08/14 10:26:02;;;;;;;34.3;27.7;;;;;;;22.3;54.8;101810;;;;
2021/08/14 10:28:02;;;;;;;34.3;27.7;;;;;;;22.4;55.3;101820;;;;
2021/08/14 10:30:02;;;;;;;34.3;27.7;;;;;;;22.2;55.2;101820;;;;
2021/08/14 10:34:02;;;;;;;34.3;27.7;;;;;;;22.3;55.2;101820;;;;
2021/08/14 10:36:02;;;;;;;34.3;27.7;;;;;;;22.2;55.9;101820;;;;
2021/08/14 10:40:02;;;;;;;34.3;27.7;;;;;;;22.3;55.2;101820;;;;
2021/08/14 10:42:02;;;;;;;34.5;30.1;;;;;;;22.2;55.2;101810;;;;
2021/08/14 10:44:03;;;;;;;34.5;30.1;;;;;;;22.3;55.8;101820;;;;
2021/08/14 10:46:02;;;;;;;34.5;30.1;;;;;;;22.5;56.7;101810;;;;
2021/08/14 10:50:02;;;;;;;34.5;30.1;;;;;;;22.6;55.6;101810;;;;
2021/08/14 10:52:02;;;;;;;34.5;30.1;;;;;;;22.9;55.6;101820;;;;
2021/08/14 10:54:02;;;;;;;34.5;30.1;;;;;;;22.8;55.1;101810;;;;
2021/08/14 10:58:02;;;;;;;34.5;30.1;;;;;;;23.0;55.6;101810;;;;
2021/08/14 11:02:02;;;;;;;33.3;28.0;;;;;;;22.8;55.8;101810;;;;
2021/08/14 11:04:02;;;;;;;33.3;28.0;;;;;;;23.0;56.2;101800;;;;
2021/08/14 11:06:02;;;;;;;33.3;28.0;;;;;;;22.9;55.8;101800;;;;
2021/08/14 11:08:02;;;;;;;33.3;28.0;;;;;;;23.0;56.3;101800;;;;
2021/08/14 11:12:02;;;;;;;33.3;28.0;;;;;;;22.8;56.5;101800;;;;
2021/08/14 11:14:02;;;;;;;33.3;28.0;;;;;;;22.9;56.4;101800;;;;
2021/08/14 11:16:02;;;;;;;33.3;28.0;;;;;;;23.0;56.3;101800;;;;
2021/08/14 11:18:02;;;;;;;33.3;28.0;;;;;;;22.9;56.1;101800;;;;
2021/08/14 11:22:02;;;;;;;30.7;25.1;;;;;;;23.0;55.5;101800;;;;
2021/08/14 11:26:02;;;;;;;30.7;25.1;;;;;;;23.2;55.0;101790;;;;
2021/08/14 11:28:02;;;;;;;30.7;25.1;;;;;;;23.4;56.0;101780;;;;
2021/08/14 11:30:02;;;;;;;30.7;25.1;;;;;;;23.5;55.5;101790;;;;
2021/08/14 11:32:02;;;;;;;30.7;25.1;;;;;;;23.7;56.4;101790;;;;
2021/08/14 11:36:02;;;;;;;30.7;25.1;;;;;;;23.8;53.7;101790;;;;
2021/08/14 11:38:02;;;;;;;30.7;25.1;;;;;;;23.7;54.5;101790;;;;
2021/08/14 11:44:02;;;;;;;21.9;17.0;;;;;;;23.8;54.5;101790;;;;
2021/08/14 11:48:02;;;;;;;21.9;17.0;;;;;;;23.7;54.0;101790;;;;
2021/08/14 11:50:02;;;;;;;21.9;17.0;;;;;;;23.9;54.6;101790;;;;
2021/08/14 11:52:02;;;;;;;21.9;17.0;;;;;;;23.7;54.0;101790;;;;
2021/08/14 11:54:02;;;;;;;21.9;17.0;;;;;;;23.8;54.1;101790;;;;
2021/08/14 11:56:02;;;;;;;21.9;17.0;;;;;;;23.6;54.9;101790;;;;
2021/08/14 11:58:02;;;;;;;21.9;17.0;;;;;;;23.7;55.0;101790;;;;
2021/08/14 12:00:05;;;;;;;21.9;17.0;;;;;;;23.9;53.9;101800;;;;
2021/08/14 12:02:02;;;;;;;21.2;16.0;;;;;;;24.0;54.6;101800;;;;
2021/08/14 12:04:02;;;;;;;21.2;16.0;;;;;;;24.1;53.4;101790;;;;
2021/08/14 12:06:02;;;;;;;21.2;16.0;;;;;;;24.0;53.4;101790;;;;
2021/08/14 12:10:02;;;;;;;21.2;16.0;;;;;;;24.1;53.9;101790;;;;
2021/08/14 12:12:02;;;;;;;21.2;16.0;;;;;;;24.2;52.8;101790;;;;
2021/08/14 12:14:02;;;;;;;21.2;16.0;;;;;;;24.1;52.4;101790;;;;
2021/08/14 12:16:02;;;;;;;21.2;16.0;;;;;;;24.4;52.7;101800;;;;
2021/08/14 12:18:02;;;;;;;21.2;16.0;;;;;;;24.3;53.3;101800;;;;
2021/08/14 12:20:02;;;;;;;21.2;16.0;;;;;;;24.4;53.1;101800;;;;
2021/08/14 12:22:02;;;;;;;25.3;20.0;;;;;;;24.0;54.6;101790;;;;
2021/08/14 12:24:02;;;;;;;25.3;20.0;;;;;;;24.1;53.7;101790;;;;
2021/08/14 12:26:02;;;;;;;25.3;20.0;;;;;;;24.4;53.4;101800;;;;
2021/08/14 12:28:02;;;;;;;25.3;20.0;;;;;;;24.0;53.2;101800;;;;
2021/08/14 12:30:02;;;;;;;25.3;20.0;;;;;;;24.2;52.8;101810;;;;
2021/08/14 12:32:02;;;;;;;25.3;20.0;;;;;;;24.3;52.0;101800;;;;
2021/08/14 12:36:02;;;;;;;25.3;20.0;;;;;;;24.5;52.8;101800;;;;
2021/08/14 12:38:02;;;;;;;25.3;20.0;;;;;;;24.6;52.0;101800;;;;
2021/08/14 12:40:02;;;;;;;25.3;20.0;;;;;;;24.7;51.7;101790;;;;
2021/08/14 12:42:02;;;;;;;28.0;20.4;;;;;;;24.5;49.7;101790;;;;
2021/08/14 12:44:02;;;;;;;28.0;20.4;;;;;;;24.4;52.1;101790;;;;
2021/08/14 12:48:02;;;;;;;28.0;20.4;;;;;;;24.3;51.7;101790;;;;
2021/08/14 12:50:02;;;;;;;28.0;20.4;;;;;;;24.2;50.6;101780;;;;
2021/08/14 12:54:02;;;;;;;28.0;20.4;;;;;;;24.4;51.3;101780;;;;
2021/08/14 12:56:02;;;;;;;28.0;20.4;;;;;;;24.3;50.5;101780;;;;
2021/08/14 13:04:03;;;;;;;20.9;14.5;;;;;;;24.4;50.6;101770;;;;
2021/08/14 13:08:02;;;;;;;20.9;14.5;;;;;;;24.5;49.5;101770;;;;
2021/08/14 13:10:02;;;;;;;20.9;14.5;;;;;;;24.3;49.1;101770;;;;
2021/08/14 13:12:02;;;;;;;20.9;14.5;;;;;;;24.4;49.5;101770;;;;
2021/08/14 13:14:02;;;;;;;20.9;14.5;;;;;;;24.6;50.9;101760;;;;
2021/08/14 13:16:02;;;;;;;20.9;14.5;;;;;;;24.4;49.1;101770;;;;
2021/08/14 13:18:02;;;;;;;20.9;14.5;;;;;;;24.6;50.5;101770;;;;
2021/08/14 13:20:02;;;;;;;20.9;14.5;;;;;;;24.5;48.5;101770;;;;
2021/08/14 13:22:02;;;;;;;13.0;9.8;;;;;;;24.7;48.5;101770;;;;
2021/08/14 13:26:02;;;;;;;13.0;9.8;;;;;;;24.8;48.7;101760;;;;
2021/08/14 13:28:02;;;;;;;13.0;9.8;;;;;;;24.9;49.1;101760;;;;
2021/08/14 13:30:02;;;;;;;13.0;9.8;;;;;;;24.8;48.7;101760;;;;
2021/08/14 13:32:02;;;;;;;13.0;9.8;;;;;;;24.9;48.0;101760;;;;
2021/08/14 13:34:02;;;;;;;13.0;9.8;;;;;;;25.0;49.6;101760;;;;
2021/08/14 13:38:02;;;;;;;13.0;9.8;;;;;;;25.3;50.5;101750;;;;
2021/08/14 13:40:02;;;;;;;13.0;9.8;;;;;;;25.4;47.9;101750;;;;
2021/08/14 13:42:02;;;;;;;16.1;9.5;;;;;;;25.5;48.1;101740;;;;
2021/08/14 13:44:06;;;;;;;16.1;9.5;;;;;;;25.6;46.3;101750;;;;
2021/08/14 13:46:02;;;;;;;16.1;9.5;;;;;;;25.7;46.1;101750;;;;
2021/08/14 13:48:02;;;;;;;16.1;9.5;;;;;;;25.9;45.9;101750;;;;
2021/08/14 13:50:02;;;;;;;16.1;9.5;;;;;;;25.8;45.5;101750;;;;
2021/08/14 13:52:02;;;;;;;16.1;9.5;;;;;;;25.9;47.2;101740;;;;
2021/08/14 13:54:02;;;;;;;16.1;9.5;;;;;;;25.6;44.7;101740;;;;
2021/08/14 13:56:02;;;;;;;16.1;9.5;;;;;;;25.8;46.4;101740;;;;
2021/08/14 13:58:05;;;;;;;16.1;9.5;;;;;;;25.9;45.3;101740;;;;
2021/08/14 14:00:02;;;;;;;16.1;9.5;;;;;;;26.1;47.9;101740;;;;
2021/08/14 14:02:03;;;;;;;14.9;8.7;;;;;;;26.4;46.2;101750;;;;
2021/08/14 14:06:04;;;;;;;14.9;8.7;;;;;;;26.3;45.4;101750;;;;
2021/08/14 14:08:02;;;;;;;14.9;8.7;;;;;;;26.4;45.3;101740;;;;
2021/08/14 14:10:02;;;;;;;14.9;8.7;;;;;;;26.5;45.3;101740;;;;
2021/08/14 14:12:02;;;;;;;14.9;8.7;;;;;;;26.4;43.9;101740;;;;
2021/08/14 14:14:02;;;;;;;14.9;8.7;;;;;;;26.5;46.2;101740;;;;
2021/08/14 14:16:02;;;;;;;14.9;8.7;;;;;;;26.4;47.1;101740;;;;
2021/08/14 14:20:02;;;;;;;14.9;8.7;;;;;;;26.2;44.4;101740;;;;
2021/08/14 14:22:02;;;;;;;13.0;8.5;;;;;;;26.4;46.2;101740;;;;
2021/08/14 14:24:02;;;;;;;13.0;8.5;;;;;;;26.6;46.6;101730;;;;
2021/08/14 14:26:02;;;;;;;13.0;8.5;;;;;;;26.5;45.9;101730;;;;
2021/08/14 14:30:02;;;;;;;13.0;8.5;;;;;;;26.3;46.2;101730;;;;
2021/08/14 14:32:02;;;;;;;13.0;8.5;;;;;;;26.4;45.0;101730;;;;
2021/08/14 14:34:05;;;;;;;13.0;8.5;;;;;;;26.5;45.6;101730;;;;
2021/08/14 14:36:02;;;;;;;13.0;8.5;;;;;;;26.7;44.6;101720;;;;
2021/08/14 14:38:02;;;;;;;13.0;8.5;;;;;;;26.6;44.3;101720;;;;
2021/08/14 14:40:02;;;;;;;13.0;8.5;;;;;;;26.5;44.2;101730;;;;
2021/08/14 14:44:02;;;;;;;12.4;7.5;;;;;;;26.6;45.4;101730;;;;
2021/08/14 14:46:02;;;;;;;12.4;7.5;;;;;;;26.7;44.4;101730;;;;
2021/08/14 14:48:02;;;;;;;12.4;7.5;;;;;;;26.8;44.4;101720;;;;
2021/08/14 14:50:02;;;;;;;12.4;7.5;;;;;;;26.9;45.5;101720;;;;
2021/08/14 14:52:02;;;;;;;12.4;7.5;;;;;;;27.1;43.2;101710;;;;
2021/08/14 14:54:02;;;;;;;12.4;7.5;;;;;;;27.3;43.7;101720;;;;
2021/08/14 14:56:02;;;;;;;12.4;7.5;;;;;;;27.4;43.6;101720;;;;
2021/08/14 14:58:02;;;;;;;12.4;7.5;;;;;;;27.3;43.5;101720;;;;
2021/08/14 15:00:02;;;;;;;12.4;7.5;;;;;;;27.1;42.2;101710;;;;
2021/08/14 15:02:02;;;;;;;11.1;6.9;;;;;;;27.2;42.9;101710;;;;
2021/08/14 15:04:02;;;;;;;11.1;6.9;;;;;;;27.1;42.4;101710;;;;
2021/08/14 15:06:02;;;;;;;11.1;6.9;;;;;;;27.3;42.7;101710;;;;
2021/08/14 15:08:02;;;;;;;11.1;6.9;;;;;;;27.6;43.5;101710;;;;
2021/08/14 15:10:02;;;;;;;11.1;6.9;;;;;;;27.5;43.0;101710;;;;
2021/08/14 15:12:02;;;;;;;11.1;6.9;;;;;;;27.6;42.5;101710;;;;
2021/08/14 15:14:02;;;;;;;11.1;6.9;;;;;;;27.8;42.6;101700;;;;
2021/08/14 15:16:02;;;;;;;11.1;6.9;;;;;;;28.1;43.3;101700;;;;
2021/08/14 15:18:02;;;;;;;11.1;6.9;;;;;;;28.0;39.9;101700;;;;
2021/08/14 15:28:02;;;;;;;9.1;6.5;;;;;;;28.1;41.4;101690;;;;
2021/08/14 15:30:02;;;;;;;9.1;6.5;;;;;;;28.3;39.5;101690;;;;
2021/08/14 15:32:02;;;;;;;9.1;6.5;;;;;;;28.5;39.6;101680;;;;
2021/08/14 15:34:02;;;;;;;9.1;6.5;;;;;;;28.4;38.8;101690;;;;
2021/08/14 15:36:02;;;;;;;9.1;6.5;;;;;;;28.3;39.6;101690;;;;
2021/08/14 15:38:02;;;;;;;9.1;6.5;;;;;;;27.9;38.9;101690;;;;
2021/08/14 15:40:02;;;;;;;9.1;6.5;;;;;;;28.1;40.0;101690;;;;
2021/08/14 15:42:02;;;;;;;9.0;5.2;;;;;;;28.2;39.0;101690;;;;
2021/08/14 15:44:02;;;;;;;9.0;5.2;;;;;;;28.6;39.4;101680;;;;
2021/08/14 15:46:02;;;;;;;9.0;5.2;;;;;;;28.4;38.5;101680;;;;
2021/08/14 15:48:02;;;;;;;9.0;5.2;;;;;;;28.8;37.5;101680;;;;
2021/08/14 15:50:02;;;;;;;9.0;5.2;;;;;;;29.0;37.1;101690;;;;
2021/08/14 15:52:02;;;;;;;9.0;5.2;;;;;;;28.9;37.6;101680;;;;
2021/08/14 15:54:02;;;;;;;9.0;5.2;;;;;;;28.6;36.4;101680;;;;
2021/08/14 15:56:02;;;;;;;9.0;5.2;;;;;;;29.0;37.0;101680;;;;
2021/08/14 15:58:02;;;;;;;9.0;5.2;;;;;;;28.9;36.5;101680;;;;
2021/08/14 16:00:02;;;;;;;9.0;5.2;;;;;;;29.2;36.8;101670;;;;
2021/08/14 16:02:06;;;;;;;9.1;5.4;;;;;;;29.4;36.4;101670;;;;
2021/08/14 16:04:12;;;;;;;9.1;5.4;;;;;;;29.3;36.3;101670;;;;
2021/08/14 16:06:02;;;;;;;9.1;5.4;;;;;;;29.7;34.9;101660;;;;
2021/08/14 16:08:02;;;;;;;9.1;5.4;;;;;;;29.9;35.7;101670;;;;
2021/08/14 16:10:02;;;;;;;9.1;5.4;;;;;;;29.1;35.1;101670;;;;
2021/08/14 16:14:02;;;;;;;9.1;5.4;;;;;;;28.8;35.5;101650;;;;
2021/08/14 16:16:02;;;;;;;9.1;5.4;;;;;;;28.4;35.5;101650;;;;
2021/08/14 16:18:02;;;;;;;9.1;5.4;;;;;;;28.7;36.2;101650;;;;
2021/08/14 16:20:02;;;;;;;9.1;5.4;;;;;;;29.0;36.2;101650;;;;
2021/08/14 16:22:02;;;;;;;8.2;5.0;;;;;;;28.7;36.0;101640;;;;
2021/08/14 16:24:02;;;;;;;8.2;5.0;;;;;;;28.6;35.2;101640;;;;
2021/08/14 16:28:02;;;;;;;8.2;5.0;;;;;;;28.8;35.2;101640;;;;
2021/08/14 16:30:02;;;;;;;8.2;5.0;;;;;;;28.9;34.8;101640;;;;
2021/08/14 16:32:02;;;;;;;8.2;5.0;;;;;;;28.8;34.6;101650;;;;
2021/08/14 16:34:02;;;;;;;8.2;5.0;;;;;;;28.7;34.1;101640;;;;
2021/08/14 16:36:02;;;;;;;8.2;5.0;;;;;;;28.4;35.6;101650;;;;
2021/08/14 16:38:02;;;;;;;8.2;5.0;;;;;;;29.0;35.5;101640;;;;
2021/08/14 16:40:02;;;;;;;8.2;5.0;;;;;;;29.2;35.0;101640;;;;
2021/08/14 16:42:02;;;;;;;7.9;4.1;;;;;;;29.1;35.3;101640;;;;
2021/08/14 16:44:02;;;;;;;7.9;4.1;;;;;;;29.2;35.2;101640;;;;
2021/08/14 16:46:07;;;;;;;7.9;4.1;;;;;;;29.5;35.1;101650;;;;
2021/08/14 16:48:02;;;;;;;7.9;4.1;;;;;;;29.3;35.1;101640;;;;
2021/08/14 16:50:02;;;;;;;7.9;4.1;;;;;;;29.5;34.9;101640;;;;
2021/08/14 16:52:02;;;;;;;7.9;4.1;;;;;;;29.0;34.1;101640;;;;
2021/08/14 16:54:02;;;;;;;7.9;4.1;;;;;;;28.8;34.7;101640;;;;
2021/08/14 16:56:02;;;;;;;7.9;4.1;;;;;;;28.7;34.4;101640;;;;
2021/08/14 16:58:02;;;;;;;7.9;4.1;;;;;;;28.9;34.7;101640;;;;
2021/08/14 17:00:02;;;;;;;7.9;4.1;;;;;;;29.4;34.9;101630;;;;
2021/08/14 17:02:03;;;;;;;6.5;3.7;;;;;;;29.0;34.2;101640;;;;
2021/08/14 17:04:04;;;;;;;6.5;3.7;;;;;;;29.2;34.8;101640;;;;
2021/08/14 17:06:02;;;;;;;6.5;3.7;;;;;;;29.3;35.0;101640;;;;
2021/08/14 17:08:03;;;;;;;6.5;3.7;;;;;;;29.9;33.8;101640;;;;
2021/08/14 17:10:02;;;;;;;6.5;3.7;;;;;;;29.8;34.7;101630;;;;
2021/08/14 17:14:02;;;;;;;6.5;3.7;;;;;;;29.5;34.6;101630;;;;
2021/08/14 17:16:02;;;;;;;6.5;3.7;;;;;;;29.9;34.1;101630;;;;
2021/08/14 17:18:02;;;;;;;6.5;3.7;;;;;;;29.4;34.3;101630;;;;
2021/08/14 17:20:02;;;;;;;6.5;3.7;;;;;;;29.7;33.9;101630;;;;
2021/08/14 17:22:02;;;;;;;5.2;3.4;;;;;;;29.5;34.3;101630;;;;
2021/08/14 17:24:02;;;;;;;5.2;3.4;;;;;;;29.2;34.0;101620;;;;
2021/08/14 17:26:02;;;;;;;5.2;3.4;;;;;;;29.4;33.5;101620;;;;
2021/08/14 17:28:02;;;;;;;5.2;3.4;;;;;;;29.5;33.9;101620;;;;
2021/08/14 17:30:02;;;;;;;5.2;3.4;;;;;;;29.7;34.3;101620;;;;
2021/08/14 17:32:02;;;;;;;5.2;3.4;;;;;;;29.5;34.1;101620;;;;
2021/08/14 17:34:02;;;;;;;5.2;3.4;;;;;;;28.8;33.6;101620;;;;
2021/08/14 17:36:02;;;;;;;5.2;3.4;;;;;;;28.4;34.7;101620;;;;
2021/08/14 17:38:02;;;;;;;5.2;3.4;;;;;;;28.1;35.1;101620;;;;
2021/08/14 17:44:02;;;;;;;5.6;3.0;;;;;;;27.8;36.1;101620;;;;
2021/08/14 17:46:02;;;;;;;5.6;3.0;;;;;;;27.6;36.6;101620;;;;
2021/08/14 17:48:02;;;;;;;5.6;3.0;;;;;;;27.2;36.9;101610;;;;
2021/08/14 17:50:02;;;;;;;5.6;3.0;;;;;;;27.0;37.7;101610;;;;
2021/08/14 17:52:02;;;;;;;5.6;3.0;;;;;;;26.9;37.5;101610;;;;
2021/08/14 17:54:02;;;;;;;5.6;3.0;;;;;;;26.6;38.3;101610;;;;